Terminal Aerodrome Forecast
Issued by NWS Charleston, WV

Home | Current Version | Previous Version | Text Only | Print | Product List | Glossary On
Versions: 1 2 3 4 5 6 7 8 9 10 11 12 13 14 15 16 17 18 19 20 21 22 23 24 25 26 27 28 29 30
737
FTUS41 KRLX 192012 AAA
TAFHTS
TAF AMD
KHTS 192012Z 1920/2018 32012KT P6SM BKN035 OVC050 WS010/32020KT
     FM200100 29007KT P6SM FEW080=

USA.gov is the U.S. government's official web portal to all federal, state and local government web resources and services.